sensor_id;sensor_type;location;lat;lon;timestamp;temperature;humidity
18091;DHT22;9172;49.948;9.208;2022-12-26T00:02:23;11.90;99.90
18091;DHT22;9172;49.948;9.208;2022-12-26T00:04:59;11.90;99.90
18091;DHT22;9172;49.948;9.208;2022-12-26T00:07:27;11.90;99.90
18091;DHT22;9172;49.948;9.208;2022-12-26T00:09:56;11.90;99.90
18091;DHT22;9172;49.948;9.208;2022-12-26T00:12:25;12.00;99.90
18091;DHT22;9172;49.948;9.208;2022-12-26T00:14:55;12.00;99.90
18091;DHT22;9172;49.948;9.208;2022-12-26T00:17:24;12.00;99.90
18091;DHT22;9172;49.948;9.208;2022-12-26T00:19:54;12.00;99.90
18091;DHT22;9172;49.948;9.208;2022-12-26T00:22:23;12.00;99.90
18091;DHT22;9172;49.948;9.208;2022-12-26T00:24:52;12.00;99.90
18091;DHT22;9172;49.948;9.208;2022-12-26T00:27:21;12.00;99.90
18091;DHT22;9172;49.948;9.208;2022-12-26T00:29:49;12.00;99.90
18091;DHT22;9172;49.948;9.208;2022-12-26T00:32:19;12.00;99.90
18091;DHT22;9172;49.948;9.208;2022-12-26T00:34:49;12.00;99.90
18091;DHT22;9172;49.948;9.208;2022-12-26T00:37:18;12.00;99.90
18091;DHT22;9172;49.948;9.208;2022-12-26T00:39:47;12.00;99.90
18091;DHT22;9172;49.948;9.208;2022-12-26T00:42:15;12.00;99.90
18091;DHT22;9172;49.948;9.208;2022-12-26T00:44:45;12.00;99.90
18091;DHT22;9172;49.948;9.208;2022-12-26T00:47:13;12.00;99.90
18091;DHT22;9172;49.948;9.208;2022-12-26T00:49:42;12.10;99.90
18091;DHT22;9172;49.948;9.208;2022-12-26T00:52:11;12.10;99.90
18091;DHT22;9172;49.948;9.208;2022-12-26T00:54:40;12.10;99.90
18091;DHT22;9172;49.948;9.208;2022-12-26T00:57:09;12.00;99.90
18091;DHT22;9172;49.948;9.208;2022-12-26T00:59:38;12.00;99.90
18091;DHT22;9172;49.948;9.208;2022-12-26T01:02:08;12.10;99.90
18091;DHT22;9172;49.948;9.208;2022-12-26T01:04:55;12.10;99.90
18091;DHT22;9172;49.948;9.208;2022-12-26T01:07:26;12.10;99.90
18091;DHT22;9172;49.948;9.208;2022-12-26T01:09:56;12.10;99.90
18091;DHT22;9172;49.948;9.208;2022-12-26T01:12:25;12.10;99.90
18091;DHT22;9172;49.948;9.208;2022-12-26T01:14:56;12.10;99.90
18091;DHT22;9172;49.948;9.208;2022-12-26T01:17:25;12.10;99.90
18091;DHT22;9172;49.948;9.208;2022-12-26T01:19:56;12.10;99.90
18091;DHT22;9172;49.948;9.208;2022-12-26T01:22:25;12.00;99.90
18091;DHT22;9172;49.948;9.208;2022-12-26T01:24:55;12.00;99.90
18091;DHT22;9172;49.948;9.208;2022-12-26T01:27:27;12.00;99.90
18091;DHT22;9172;49.948;9.208;2022-12-26T01:29:55;12.00;99.90
18091;DHT22;9172;49.948;9.208;2022-12-26T01:32:24;12.00;99.90
18091;DHT22;9172;49.948;9.208;2022-12-26T01:34:53;12.00;99.90
18091;DHT22;9172;49.948;9.208;2022-12-26T01:37:23;12.00;99.90
18091;DHT22;9172;49.948;9.208;2022-12-26T01:39:52;12.00;99.90
18091;DHT22;9172;49.948;9.208;2022-12-26T01:42:23;12.00;99.90
18091;DHT22;9172;49.948;9.208;2022-12-26T01:45:02;12.00;99.90
18091;DHT22;9172;49.948;9.208;2022-12-26T01:47:42;12.00;99.90
18091;DHT22;9172;49.948;9.208;2022-12-26T01:50:20;12.00;99.90
18091;DHT22;9172;49.948;9.208;2022-12-26T01:52:50;12.00;99.90
18091;DHT22;9172;49.948;9.208;2022-12-26T01:55:22;12.00;99.90
18091;DHT22;9172;49.948;9.208;2022-12-26T01:57:53;12.00;99.90
18091;DHT22;9172;49.948;9.208;2022-12-26T02:00:39;12.00;99.90
18091;DHT22;9172;49.948;9.208;2022-12-26T02:03:08;12.00;99.90
18091;DHT22;9172;49.948;9.208;2022-12-26T02:05:57;12.00;99.90
18091;DHT22;9172;49.948;9.208;2022-12-26T02:08:29;12.00;99.90
18091;DHT22;9172;49.948;9.208;2022-12-26T02:11:03;12.00;99.90
18091;DHT22;9172;49.948;9.208;2022-12-26T02:13:34;12.00;99.90
18091;DHT22;9172;49.948;9.208;2022-12-26T02:16:04;12.00;99.90
18091;DHT22;9172;49.948;9.208;2022-12-26T02:18:34;12.00;99.90
18091;DHT22;9172;49.948;9.208;2022-12-26T02:21:10;12.00;99.90
18091;DHT22;9172;49.948;9.208;2022-12-26T02:24:19;12.00;99.90
18091;DHT22;9172;49.948;9.208;2022-12-26T02:27:10;12.00;99.90
18091;DHT22;9172;49.948;9.208;2022-12-26T02:29:59;12.00;99.90
18091;DHT22;9172;49.948;9.208;2022-12-26T02:35:25;12.00;99.90
18091;DHT22;9172;49.948;9.208;2022-12-26T02:37:57;12.00;99.90
18091;DHT22;9172;49.948;9.208;2022-12-26T02:40:38;12.00;99.90
18091;DHT22;9172;49.948;9.208;2022-12-26T02:43:14;12.00;99.90
18091;DHT22;9172;49.948;9.208;2022-12-26T02:45:47;12.00;99.90
18091;DHT22;9172;49.948;9.208;2022-12-26T02:48:34;12.00;99.90
18091;DHT22;9172;49.948;9.208;2022-12-26T02:51:08;12.00;99.90
18091;DHT22;9172;49.948;9.208;2022-12-26T02:53:59;12.00;99.90
18091;DHT22;9172;49.948;9.208;2022-12-26T02:56:48;12.00;99.90
18091;DHT22;9172;49.948;9.208;2022-12-26T02:59:39;12.00;99.90
18091;DHT22;9172;49.948;9.208;2022-12-26T03:02:28;12.00;99.90
18091;DHT22;9172;49.948;9.208;2022-12-26T03:05:20;11.90;99.90
18091;DHT22;9172;49.948;9.208;2022-12-26T03:08:08;11.90;99.90
18091;DHT22;9172;49.948;9.208;2022-12-26T03:10:57;11.90;99.90
18091;DHT22;9172;49.948;9.208;2022-12-26T03:13:45;11.80;99.90
18091;DHT22;9172;49.948;9.208;2022-12-26T03:16:15;11.90;99.90
18091;DHT22;9172;49.948;9.208;2022-12-26T03:19:05;11.90;99.90
18091;DHT22;9172;49.948;9.208;2022-12-26T03:21:37;11.90;99.90
18091;DHT22;9172;49.948;9.208;2022-12-26T03:24:08;11.80;99.90
18091;DHT22;9172;49.948;9.208;2022-12-26T03:26:41;11.90;99.90
18091;DHT22;9172;49.948;9.208;2022-12-26T03:29:13;11.80;99.90
18091;DHT22;9172;49.948;9.208;2022-12-26T03:32:02;11.80;99.90
18091;DHT22;9172;49.948;9.208;2022-12-26T03:34:33;11.80;99.90
18091;DHT22;9172;49.948;9.208;2022-12-26T03:37:11;11.80;99.90
18091;DHT22;9172;49.948;9.208;2022-12-26T03:39:46;11.80;99.90
18091;DHT22;9172;49.948;9.208;2022-12-26T03:42:35;11.80;99.90
18091;DHT22;9172;49.948;9.208;2022-12-26T03:45:26;11.80;99.90
18091;DHT22;9172;49.948;9.208;2022-12-26T03:48:17;11.80;99.90
18091;DHT22;9172;49.948;9.208;2022-12-26T03:51:07;11.80;99.90
18091;DHT22;9172;49.948;9.208;2022-12-26T03:53:56;11.80;99.90
18091;DHT22;9172;49.948;9.208;2022-12-26T03:56:49;11.80;99.90
18091;DHT22;9172;49.948;9.208;2022-12-26T03:59:37;11.80;99.90
18091;DHT22;9172;49.948;9.208;2022-12-26T04:02:25;11.80;99.90
18091;DHT22;9172;49.948;9.208;2022-12-26T04:05:14;11.80;99.90
18091;DHT22;9172;49.948;9.208;2022-12-26T04:08:04;11.80;99.90
18091;DHT22;9172;49.948;9.208;2022-12-26T04:10:54;11.80;99.90
18091;DHT22;9172;49.948;9.208;2022-12-26T04:13:45;11.80;99.90
18091;DHT22;9172;49.948;9.208;2022-12-26T04:16:40;11.80;99.90
18091;DHT22;9172;49.948;9.208;2022-12-26T04:19:48;11.80;99.90
18091;DHT22;9172;49.948;9.208;2022-12-26T04:22:20;11.80;99.90
18091;DHT22;9172;49.948;9.208;2022-12-26T04:25:09;11.80;99.90
18091;DHT22;9172;49.948;9.208;2022-12-26T04:27:56;11.80;99.90
18091;DHT22;9172;49.948;9.208;2022-12-26T04:30:47;11.80;99.90
18091;DHT22;9172;49.948;9.208;2022-12-26T04:33:37;11.80;99.90
18091;DHT22;9172;49.948;9.208;2022-12-26T04:36:26;11.80;99.90
18091;DHT22;9172;49.948;9.208;2022-12-26T04:39:15;11.70;99.90
18091;DHT22;9172;49.948;9.208;2022-12-26T04:42:04;11.70;99.90
18091;DHT22;9172;49.948;9.208;2022-12-26T04:44:52;11.70;99.90
18091;DHT22;9172;49.948;9.208;2022-12-26T04:47:22;11.60;99.90
18091;DHT22;9172;49.948;9.208;2022-12-26T04:49:51;11.60;99.90
18091;DHT22;9172;49.948;9.208;2022-12-26T04:52:38;11.60;99.90
18091;DHT22;9172;49.948;9.208;2022-12-26T04:55:24;11.60;99.90
18091;DHT22;9172;49.948;9.208;2022-12-26T04:57:53;11.70;99.90
18091;DHT22;9172;49.948;9.208;2022-12-26T05:00:22;11.60;99.90
18091;DHT22;9172;49.948;9.208;2022-12-26T05:02:52;11.60;99.90
18091;DHT22;9172;49.948;9.208;2022-12-26T05:05:41;11.60;99.90
18091;DHT22;9172;49.948;9.208;2022-12-26T05:08:32;11.60;99.90
18091;DHT22;9172;49.948;9.208;2022-12-26T05:11:19;11.60;99.90
18091;DHT22;9172;49.948;9.208;2022-12-26T05:13:48;11.70;99.90
18091;DHT22;9172;49.948;9.208;2022-12-26T05:16:18;11.60;99.90
18091;DHT22;9172;49.948;9.208;2022-12-26T05:19:05;11.70;99.90
18091;DHT22;9172;49.948;9.208;2022-12-26T05:21:51;11.60;99.90
18091;DHT22;9172;49.948;9.208;2022-12-26T05:24:40;11.70;99.90
18091;DHT22;9172;49.948;9.208;2022-12-26T05:27:46;11.60;99.90
18091;DHT22;9172;49.948;9.208;2022-12-26T05:30:32;11.60;99.90
18091;DHT22;9172;49.948;9.208;2022-12-26T05:33:02;11.60;99.90
18091;DHT22;9172;49.948;9.208;2022-12-26T05:35:48;11.60;99.90
18091;DHT22;9172;49.948;9.208;2022-12-26T05:38:17;11.60;99.90
18091;DHT22;9172;49.948;9.208;2022-12-26T05:40:46;11.60;99.90
18091;DHT22;9172;49.948;9.208;2022-12-26T05:43:15;11.60;99.90
18091;DHT22;9172;49.948;9.208;2022-12-26T05:45:45;11.60;99.90
18091;DHT22;9172;49.948;9.208;2022-12-26T05:48:14;11.60;99.90
18091;DHT22;9172;49.948;9.208;2022-12-26T05:50:44;11.60;99.90
18091;DHT22;9172;49.948;9.208;2022-12-26T05:53:12;11.60;99.90
18091;DHT22;9172;49.948;9.208;2022-12-26T05:55:41;11.60;99.90
18091;DHT22;9172;49.948;9.208;2022-12-26T05:58:10;11.60;99.90
18091;DHT22;9172;49.948;9.208;2022-12-26T06:00:40;11.60;99.90
18091;DHT22;9172;49.948;9.208;2022-12-26T06:03:08;11.60;99.90
18091;DHT22;9172;49.948;9.208;2022-12-26T06:05:38;11.60;99.90
18091;DHT22;9172;49.948;9.208;2022-12-26T06:10:42;11.60;99.90
18091;DHT22;9172;49.948;9.208;2022-12-26T06:13:12;11.70;99.90
18091;DHT22;9172;49.948;9.208;2022-12-26T06:18:17;11.70;99.90
18091;DHT22;9172;49.948;9.208;2022-12-26T06:20:47;11.70;99.90
18091;DHT22;9172;49.948;9.208;2022-12-26T06:23:17;11.70;99.90
18091;DHT22;9172;49.948;9.208;2022-12-26T06:25:53;11.70;99.90
18091;DHT22;9172;49.948;9.208;2022-12-26T06:28:23;11.70;99.90
18091;DHT22;9172;49.948;9.208;2022-12-26T06:30:52;11.70;99.90
18091;DHT22;9172;49.948;9.208;2022-12-26T06:33:21;11.70;99.90
18091;DHT22;9172;49.948;9.208;2022-12-26T06:35:51;11.70;99.90
18091;DHT22;9172;49.948;9.208;2022-12-26T06:38:20;11.70;99.90
18091;DHT22;9172;49.948;9.208;2022-12-26T06:40:48;11.70;99.90
18091;DHT22;9172;49.948;9.208;2022-12-26T06:43:18;11.70;99.90
18091;DHT22;9172;49.948;9.208;2022-12-26T06:45:54;11.70;99.90
18091;DHT22;9172;49.948;9.208;2022-12-26T06:48:25;11.70;99.90
18091;DHT22;9172;49.948;9.208;2022-12-26T06:50:54;11.70;99.90
18091;DHT22;9172;49.948;9.208;2022-12-26T06:53:23;11.70;99.90
18091;DHT22;9172;49.948;9.208;2022-12-26T06:55:53;11.70;99.90
18091;DHT22;9172;49.948;9.208;2022-12-26T06:58:22;11.70;99.90
18091;DHT22;9172;49.948;9.208;2022-12-26T07:00:51;11.70;99.90
18091;DHT22;9172;49.948;9.208;2022-12-26T07:03:21;11.80;99.90
18091;DHT22;9172;49.948;9.208;2022-12-26T07:05:51;11.80;99.90
18091;DHT22;9172;49.948;9.208;2022-12-26T07:08:21;11.80;99.90
18091;DHT22;9172;49.948;9.208;2022-12-26T07:10:50;11.80;99.90
18091;DHT22;9172;49.948;9.208;2022-12-26T07:13:19;11.70;99.90
18091;DHT22;9172;49.948;9.208;2022-12-26T07:15:49;11.60;99.90
18091;DHT22;9172;49.948;9.208;2022-12-26T07:18:17;11.60;99.90
18091;DHT22;9172;49.948;9.208;2022-12-26T07:20:46;11.60;99.90
18091;DHT22;9172;49.948;9.208;2022-12-26T07:23:15;11.60;99.90
18091;DHT22;9172;49.948;9.208;2022-12-26T07:25:46;11.50;99.90
18091;DHT22;9172;49.948;9.208;2022-12-26T07:28:15;11.50;99.90
18091;DHT22;9172;49.948;9.208;2022-12-26T07:30:46;11.40;99.90
18091;DHT22;9172;49.948;9.208;2022-12-26T07:33:15;11.40;99.90
18091;DHT22;9172;49.948;9.208;2022-12-26T07:35:45;11.30;99.90
18091;DHT22;9172;49.948;9.208;2022-12-26T07:38:14;11.30;99.90
18091;DHT22;9172;49.948;9.208;2022-12-26T07:40:44;11.30;99.90
18091;DHT22;9172;49.948;9.208;2022-12-26T07:43:14;11.30;99.90
18091;DHT22;9172;49.948;9.208;2022-12-26T07:45:43;11.20;99.90
18091;DHT22;9172;49.948;9.208;2022-12-26T07:48:12;11.20;99.90
18091;DHT22;9172;49.948;9.208;2022-12-26T07:50:40;11.20;99.90
18091;DHT22;9172;49.948;9.208;2022-12-26T07:53:12;11.20;99.90
18091;DHT22;9172;49.948;9.208;2022-12-26T07:55:41;11.10;99.90
18091;DHT22;9172;49.948;9.208;2022-12-26T07:58:09;11.10;99.90
18091;DHT22;9172;49.948;9.208;2022-12-26T08:00:38;11.10;99.90
18091;DHT22;9172;49.948;9.208;2022-12-26T08:03:09;11.10;99.90
18091;DHT22;9172;49.948;9.208;2022-12-26T08:05:38;11.10;99.90
18091;DHT22;9172;49.948;9.208;2022-12-26T08:08:07;11.10;99.90
18091;DHT22;9172;49.948;9.208;2022-12-26T08:10:37;11.10;99.90
18091;DHT22;9172;49.948;9.208;2022-12-26T08:13:06;11.10;99.90
18091;DHT22;9172;49.948;9.208;2022-12-26T08:15:37;11.10;99.90
18091;DHT22;9172;49.948;9.208;2022-12-26T08:18:06;11.10;99.90
18091;DHT22;9172;49.948;9.208;2022-12-26T08:20:37;11.10;99.90
18091;DHT22;9172;49.948;9.208;2022-12-26T08:23:09;11.10;99.90
18091;DHT22;9172;49.948;9.208;2022-12-26T08:25:39;11.10;99.90
18091;DHT22;9172;49.948;9.208;2022-12-26T08:28:08;11.10;99.90
18091;DHT22;9172;49.948;9.208;2022-12-26T08:30:39;11.10;99.90
18091;DHT22;9172;49.948;9.208;2022-12-26T08:33:09;11.00;99.90
18091;DHT22;9172;49.948;9.208;2022-12-26T08:35:38;11.00;99.90
18091;DHT22;9172;49.948;9.208;2022-12-26T08:40:44;11.00;99.90
18091;DHT22;9172;49.948;9.208;2022-12-26T08:46:04;11.00;99.90
18091;DHT22;9172;49.948;9.208;2022-12-26T08:51:12;11.00;99.90
18091;DHT22;9172;49.948;9.208;2022-12-26T08:53:43;11.00;99.90
18091;DHT22;9172;49.948;9.208;2022-12-26T08:58:50;10.90;99.90
18091;DHT22;9172;49.948;9.208;2022-12-26T09:01:21;10.90;99.90
18091;DHT22;9172;49.948;9.208;2022-12-26T09:03:54;10.90;99.90
18091;DHT22;9172;49.948;9.208;2022-12-26T09:06:24;10.90;99.90
18091;DHT22;9172;49.948;9.208;2022-12-26T09:08:54;10.90;99.90
18091;DHT22;9172;49.948;9.208;2022-12-26T09:11:24;10.90;99.90
18091;DHT22;9172;49.948;9.208;2022-12-26T09:13:55;10.90;99.90
18091;DHT22;9172;49.948;9.208;2022-12-26T09:16:24;10.90;99.90
18091;DHT22;9172;49.948;9.208;2022-12-26T09:18:55;10.90;99.90
18091;DHT22;9172;49.948;9.208;2022-12-26T09:21:24;10.90;99.90
18091;DHT22;9172;49.948;9.208;2022-12-26T09:23:57;10.90;99.90
18091;DHT22;9172;49.948;9.208;2022-12-26T09:26:26;10.90;99.90
18091;DHT22;9172;49.948;9.208;2022-12-26T09:28:55;10.90;99.90
18091;DHT22;9172;49.948;9.208;2022-12-26T09:31:26;10.90;99.90
18091;DHT22;9172;49.948;9.208;2022-12-26T09:33:55;10.90;99.90
18091;DHT22;9172;49.948;9.208;2022-12-26T09:36:30;10.90;99.90
18091;DHT22;9172;49.948;9.208;2022-12-26T09:39:00;10.90;99.90
18091;DHT22;9172;49.948;9.208;2022-12-26T09:44:13;10.90;99.90
18091;DHT22;9172;49.948;9.208;2022-12-26T09:46:46;10.90;99.90
18091;DHT22;9172;49.948;9.208;2022-12-26T09:49:16;10.90;99.90
18091;DHT22;9172;49.948;9.208;2022-12-26T09:51:48;10.90;99.90
18091;DHT22;9172;49.948;9.208;2022-12-26T09:54:23;10.80;99.90
18091;DHT22;9172;49.948;9.208;2022-12-26T09:56:54;10.80;99.90
18091;DHT22;9172;49.948;9.208;2022-12-26T09:59:24;10.90;99.90
18091;DHT22;9172;49.948;9.208;2022-12-26T10:01:56;10.90;99.90
18091;DHT22;9172;49.948;9.208;2022-12-26T10:04:27;10.90;99.90
18091;DHT22;9172;49.948;9.208;2022-12-26T10:07:02;10.90;99.90
18091;DHT22;9172;49.948;9.208;2022-12-26T10:09:43;10.90;99.90
18091;DHT22;9172;49.948;9.208;2022-12-26T10:12:23;10.90;99.90
18091;DHT22;9172;49.948;9.208;2022-12-26T10:14:54;10.90;99.90
18091;DHT22;9172;49.948;9.208;2022-12-26T10:17:29;10.90;99.90
18091;DHT22;9172;49.948;9.208;2022-12-26T10:20:09;10.90;99.90
18091;DHT22;9172;49.948;9.208;2022-12-26T10:25:18;10.90;99.90
18091;DHT22;9172;49.948;9.208;2022-12-26T10:27:50;10.90;99.90
18091;DHT22;9172;49.948;9.208;2022-12-26T10:30:22;10.90;99.90
18091;DHT22;9172;49.948;9.208;2022-12-26T10:32:53;10.90;99.90
18091;DHT22;9172;49.948;9.208;2022-12-26T10:35:26;10.90;99.90
18091;DHT22;9172;49.948;9.208;2022-12-26T10:38:00;10.90;99.90
18091;DHT22;9172;49.948;9.208;2022-12-26T10:40:32;10.90;99.90
18091;DHT22;9172;49.948;9.208;2022-12-26T10:43:09;10.90;99.90
18091;DHT22;9172;49.948;9.208;2022-12-26T10:45:38;10.90;99.90
18091;DHT22;9172;49.948;9.208;2022-12-26T10:48:06;10.90;99.90
18091;DHT22;9172;49.948;9.208;2022-12-26T10:50:36;10.90;99.90
18091;DHT22;9172;49.948;9.208;2022-12-26T10:53:09;10.80;99.90
18091;DHT22;9172;49.948;9.208;2022-12-26T10:55:40;10.80;99.90
18091;DHT22;9172;49.948;9.208;2022-12-26T11:00:46;10.80;99.90
18091;DHT22;9172;49.948;9.208;2022-12-26T11:03:16;10.80;99.90
18091;DHT22;9172;49.948;9.208;2022-12-26T11:05:47;10.80;99.90
18091;DHT22;9172;49.948;9.208;2022-12-26T11:08:22;10.80;99.90
18091;DHT22;9172;49.948;9.208;2022-12-26T11:13:41;10.80;99.90
18091;DHT22;9172;49.948;9.208;2022-12-26T11:16:11;10.80;99.90
18091;DHT22;9172;49.948;9.208;2022-12-26T11:18:45;10.80;99.90
18091;DHT22;9172;49.948;9.208;2022-12-26T11:21:21;10.80;99.90
18091;DHT22;9172;49.948;9.208;2022-12-26T11:23:51;10.80;99.90
18091;DHT22;9172;49.948;9.208;2022-12-26T11:29:09;10.80;99.90
18091;DHT22;9172;49.948;9.208;2022-12-26T11:31:38;10.80;99.90
18091;DHT22;9172;49.948;9.208;2022-12-26T11:34:08;10.70;99.90
18091;DHT22;9172;49.948;9.208;2022-12-26T11:36:38;10.70;99.90
18091;DHT22;9172;49.948;9.208;2022-12-26T11:41:56;10.70;99.90
18091;DHT22;9172;49.948;9.208;2022-12-26T11:47:10;10.70;99.90
18091;DHT22;9172;49.948;9.208;2022-12-26T11:52:34;10.60;99.90
18091;DHT22;9172;49.948;9.208;2022-12-26T11:58:00;10.70;99.90
18091;DHT22;9172;49.948;9.208;2022-12-26T12:00:34;10.50;99.90
18091;DHT22;9172;49.948;9.208;2022-12-26T12:05:44;10.60;99.90
18091;DHT22;9172;49.948;9.208;2022-12-26T12:08:24;10.50;99.90
18091;DHT22;9172;49.948;9.208;2022-12-26T12:11:04;10.50;99.90
18091;DHT22;9172;49.948;9.208;2022-12-26T12:13:52;10.50;99.90
18091;DHT22;9172;49.948;9.208;2022-12-26T12:16:36;10.50;99.90
18091;DHT22;9172;49.948;9.208;2022-12-26T12:19:18;10.50;99.90
18091;DHT22;9172;49.948;9.208;2022-12-26T12:21:51;10.60;99.90
18091;DHT22;9172;49.948;9.208;2022-12-26T12:24:27;10.50;99.90
18091;DHT22;9172;49.948;9.208;2022-12-26T12:27:01;10.50;99.90
18091;DHT22;9172;49.948;9.208;2022-12-26T12:29:37;10.50;99.90
18091;DHT22;9172;49.948;9.208;2022-12-26T12:32:11;10.50;99.90
18091;DHT22;9172;49.948;9.208;2022-12-26T12:34:52;10.50;99.90
18091;DHT22;9172;49.948;9.208;2022-12-26T12:37:26;10.60;99.90
18091;DHT22;9172;49.948;9.208;2022-12-26T12:42:42;10.60;99.90
18091;DHT22;9172;49.948;9.208;2022-12-26T12:45:24;10.60;99.90
18091;DHT22;9172;49.948;9.208;2022-12-26T12:48:11;10.60;99.90
18091;DHT22;9172;49.948;9.208;2022-12-26T12:53:22;10.60;99.90
18091;DHT22;9172;49.948;9.208;2022-12-26T12:55:59;10.60;99.90
18091;DHT22;9172;49.948;9.208;2022-12-26T12:58:32;10.60;99.90
18091;DHT22;9172;49.948;9.208;2022-12-26T13:01:05;10.60;99.90
18091;DHT22;9172;49.948;9.208;2022-12-26T13:03:38;10.60;99.90
18091;DHT22;9172;49.948;9.208;2022-12-26T13:08:50;10.70;99.90
18091;DHT22;9172;49.948;9.208;2022-12-26T13:11:24;10.60;99.90
18091;DHT22;9172;49.948;9.208;2022-12-26T13:13:55;10.60;99.90
18091;DHT22;9172;49.948;9.208;2022-12-26T13:16:27;10.60;99.90
18091;DHT22;9172;49.948;9.208;2022-12-26T13:18:58;10.60;99.90
18091;DHT22;9172;49.948;9.208;2022-12-26T13:21:29;10.60;99.90
18091;DHT22;9172;49.948;9.208;2022-12-26T13:24:02;10.60;99.90
18091;DHT22;9172;49.948;9.208;2022-12-26T13:26:52;10.60;99.90
18091;DHT22;9172;49.948;9.208;2022-12-26T13:29:33;10.70;99.90
18091;DHT22;9172;49.948;9.208;2022-12-26T13:31:58;10.70;99.90
18091;DHT22;9172;49.948;9.208;2022-12-26T13:34:27;10.70;99.90
18091;DHT22;9172;49.948;9.208;2022-12-26T13:36:57;10.70;99.90
18091;DHT22;9172;49.948;9.208;2022-12-26T13:42:32;10.70;99.90
18091;DHT22;9172;49.948;9.208;2022-12-26T13:48:55;10.60;99.90
18091;DHT22;9172;49.948;9.208;2022-12-26T13:51:52;10.60;99.90
18091;DHT22;9172;49.948;9.208;2022-12-26T13:54:24;10.70;99.90
18091;DHT22;9172;49.948;9.208;2022-12-26T13:57:20;10.70;99.90
18091;DHT22;9172;49.948;9.208;2022-12-26T14:00:16;10.70;99.90
18091;DHT22;9172;49.948;9.208;2022-12-26T14:03:26;10.70;99.90
18091;DHT22;9172;49.948;9.208;2022-12-26T14:09:08;10.70;99.90
18091;DHT22;9172;49.948;9.208;2022-12-26T14:11:54;10.70;99.90
18091;DHT22;9172;49.948;9.208;2022-12-26T14:14:27;10.70;99.90
18091;DHT22;9172;49.948;9.208;2022-12-26T14:17:01;10.70;99.90
18091;DHT22;9172;49.948;9.208;2022-12-26T14:19:40;10.70;99.90
18091;DHT22;9172;49.948;9.208;2022-12-26T14:22:11;10.70;99.90
18091;DHT22;9172;49.948;9.208;2022-12-26T14:24:49;10.70;99.90
18091;DHT22;9172;49.948;9.208;2022-12-26T14:27:36;10.70;99.90
18091;DHT22;9172;49.948;9.208;2022-12-26T14:30:21;10.70;99.90
18091;DHT22;9172;49.948;9.208;2022-12-26T14:35:41;10.70;99.90
18091;DHT22;9172;49.948;9.208;2022-12-26T14:38:21;10.70;99.90
18091;DHT22;9172;49.948;9.208;2022-12-26T14:41:00;10.70;99.90
18091;DHT22;9172;49.948;9.208;2022-12-26T14:43:35;10.70;99.90
18091;DHT22;9172;49.948;9.208;2022-12-26T14:46:52;10.60;99.90
18091;DHT22;9172;49.948;9.208;2022-12-26T14:49:17;10.70;99.90
18091;DHT22;9172;49.948;9.208;2022-12-26T14:51:46;10.60;99.90
18091;DHT22;9172;49.948;9.208;2022-12-26T14:57:44;10.70;99.90
18091;DHT22;9172;49.948;9.208;2022-12-26T15:00:28;10.70;99.90
18091;DHT22;9172;49.948;9.208;2022-12-26T15:10:16;10.60;99.90
18091;DHT22;9172;49.948;9.208;2022-12-26T15:13:41;10.60;99.90
18091;DHT22;9172;49.948;9.208;2022-12-26T15:16:33;10.60;99.90
18091;DHT22;9172;49.948;9.208;2022-12-26T15:22:29;10.60;99.90
18091;DHT22;9172;49.948;9.208;2022-12-26T15:31:13;10.60;99.90
18091;DHT22;9172;49.948;9.208;2022-12-26T15:33:43;10.60;99.90
18091;DHT22;9172;49.948;9.208;2022-12-26T15:36:18;10.60;99.90
18091;DHT22;9172;49.948;9.208;2022-12-26T15:38:51;10.60;99.90
18091;DHT22;9172;49.948;9.208;2022-12-26T15:41:25;10.60;99.90
18091;DHT22;9172;49.948;9.208;2022-12-26T15:44:05;10.60;99.90
18091;DHT22;9172;49.948;9.208;2022-12-26T15:46:35;10.60;99.90
18091;DHT22;9172;49.948;9.208;2022-12-26T15:52:17;10.60;99.90
18091;DHT22;9172;49.948;9.208;2022-12-26T15:55:02;10.60;99.90
18091;DHT22;9172;49.948;9.208;2022-12-26T16:00:20;10.60;99.90
18091;DHT22;9172;49.948;9.208;2022-12-26T16:03:06;10.70;99.90
18091;DHT22;9172;49.948;9.208;2022-12-26T16:05:38;10.60;99.90
18091;DHT22;9172;49.948;9.208;2022-12-26T16:08:23;10.60;99.90
18091;DHT22;9172;49.948;9.208;2022-12-26T16:13:52;10.60;99.90
18091;DHT22;9172;49.948;9.208;2022-12-26T16:16:34;10.50;99.90
18091;DHT22;9172;49.948;9.208;2022-12-26T16:19:23;10.50;99.90
18091;DHT22;9172;49.948;9.208;2022-12-26T16:21:54;10.70;99.90
18091;DHT22;9172;49.948;9.208;2022-12-26T16:24:42;10.70;99.90
18091;DHT22;9172;49.948;9.208;2022-12-26T16:27:15;10.10;99.90
18091;DHT22;9172;49.948;9.208;2022-12-26T16:29:47;9.80;99.90
18091;DHT22;9172;49.948;9.208;2022-12-26T16:32:18;9.70;99.90
18091;DHT22;9172;49.948;9.208;2022-12-26T16:34:49;9.50;99.90
18091;DHT22;9172;49.948;9.208;2022-12-26T16:37:20;9.10;99.90
18091;DHT22;9172;49.948;9.208;2022-12-26T16:40:14;9.00;99.90
18091;DHT22;9172;49.948;9.208;2022-12-26T16:42:53;9.10;99.90
18091;DHT22;9172;49.948;9.208;2022-12-26T16:45:18;9.00;99.90
18091;DHT22;9172;49.948;9.208;2022-12-26T16:47:47;9.00;99.90
18091;DHT22;9172;49.948;9.208;2022-12-26T16:50:21;9.10;99.90
18091;DHT22;9172;49.948;9.208;2022-12-26T16:52:50;9.00;99.90
18091;DHT22;9172;49.948;9.208;2022-12-26T16:55:32;9.00;99.90
18091;DHT22;9172;49.948;9.208;2022-12-26T16:57:57;9.00;99.90
18091;DHT22;9172;49.948;9.208;2022-12-26T17:00:26;9.00;99.90
18091;DHT22;9172;49.948;9.208;2022-12-26T17:02:56;9.00;99.90
18091;DHT22;9172;49.948;9.208;2022-12-26T17:05:28;9.00;99.90
18091;DHT22;9172;49.948;9.208;2022-12-26T17:07:59;8.90;99.90
18091;DHT22;9172;49.948;9.208;2022-12-26T17:10:30;8.80;99.90
18091;DHT22;9172;49.948;9.208;2022-12-26T17:13:03;8.90;99.90
18091;DHT22;9172;49.948;9.208;2022-12-26T17:15:34;8.80;99.90
18091;DHT22;9172;49.948;9.208;2022-12-26T17:18:34;8.70;99.90
18091;DHT22;9172;49.948;9.208;2022-12-26T17:21:19;8.70;99.90
18091;DHT22;9172;49.948;9.208;2022-12-26T17:24:09;8.60;99.90
18091;DHT22;9172;49.948;9.208;2022-12-26T17:26:36;8.60;99.90
18091;DHT22;9172;49.948;9.208;2022-12-26T17:29:04;8.60;99.90
18091;DHT22;9172;49.948;9.208;2022-12-26T17:31:36;8.50;99.90
18091;DHT22;9172;49.948;9.208;2022-12-26T17:34:11;8.50;99.90
18091;DHT22;9172;49.948;9.208;2022-12-26T17:36:37;8.50;99.90
18091;DHT22;9172;49.948;9.208;2022-12-26T17:39:17;8.50;99.90
18091;DHT22;9172;49.948;9.208;2022-12-26T17:41:51;8.50;99.90
18091;DHT22;9172;49.948;9.208;2022-12-26T17:44:37;8.40;99.90
18091;DHT22;9172;49.948;9.208;2022-12-26T17:47:21;8.40;99.90
18091;DHT22;9172;49.948;9.208;2022-12-26T17:49:52;8.40;99.90
18091;DHT22;9172;49.948;9.208;2022-12-26T17:52:22;8.40;99.90
18091;DHT22;9172;49.948;9.208;2022-12-26T17:54:53;8.30;99.90
18091;DHT22;9172;49.948;9.208;2022-12-26T17:57:26;8.30;99.90
18091;DHT22;9172;49.948;9.208;2022-12-26T17:59:55;8.40;99.90
18091;DHT22;9172;49.948;9.208;2022-12-26T18:02:24;8.30;99.90
18091;DHT22;9172;49.948;9.208;2022-12-26T18:04:54;8.30;99.90
18091;DHT22;9172;49.948;9.208;2022-12-26T18:07:25;8.40;99.90
18091;DHT22;9172;49.948;9.208;2022-12-26T18:09:54;8.40;99.90
18091;DHT22;9172;49.948;9.208;2022-12-26T18:12:22;8.40;99.90
18091;DHT22;9172;49.948;9.208;2022-12-26T18:14:52;8.50;99.90